Time;durP1;ratioP1;P1;durP2;ratioP2;P2;SDS_P1;SDS_P2;PMS_P1;PMS_P2;Temp;Humidity;BMP_temperature;BMP_pressure;BME280_temperature;BME280_humidity;BME280_pressure;Samples;Min_cycle;Max_cycle;Signal;HPM_P1;HPM_P2
2021/10/08 00:00:26;;;;;;;3.10;2.40;;;;;;;;;;4988063;28;20058;-83
2021/10/08 00:02:55;;;;;;;3.05;2.40;;;;;;;;;;4989062;28;20455;-83
2021/10/08 00:05:22;;;;;;;3.50;2.47;;;;;;;;;;4983795;28;20120;-82
2021/10/08 00:07:48;;;;;;;4.32;2.75;;;;;;;;;;4985431;28;20054;-81
2021/10/08 00:10:15;;;;;;;3.30;2.40;;;;;;;;;;4986668;28;20129;-79
2021/10/08 00:12:41;;;;;;;3.38;2.15;;;;;;;;;;4973546;28;20062;-80
2021/10/08 00:15:08;;;;;;;3.70;2.53;;;;;;;;;;4986044;28;20042;-79
2021/10/08 00:17:35;;;;;;;3.65;2.13;;;;;;;;;;4990041;28;20113;-79
2021/10/08 00:20:07;;;;;;;4.47;2.60;;;;;;;;;;4986237;28;20057;-80
2021/10/08 00:22:33;;;;;;;3.80;2.53;;;;;;;;;;4991375;28;20077;-81
2021/10/08 00:25:12;;;;;;;3.33;2.38;;;;;;;;;;4996717;28;20030;-80
2021/10/08 00:27:38;;;;;;;3.28;2.50;;;;;;;;;;4988241;28;20460;-80
2021/10/08 00:30:07;;;;;;;3.58;2.20;;;;;;;;;;4971063;28;20157;-81
2021/10/08 00:32:34;;;;;;;2.63;2.15;;;;;;;;;;4987098;28;20109;-80
2021/10/08 00:35:00;;;;;;;3.10;2.35;;;;;;;;;;4989278;28;20090;-81
2021/10/08 00:37:27;;;;;;;3.15;2.10;;;;;;;;;;4988717;28;20542;-80
2021/10/08 00:39:53;;;;;;;4.00;2.50;;;;;;;;;;4983096;28;20084;-79
2021/10/08 00:42:22;;;;;;;3.50;2.40;;;;;;;;;;4969095;28;20050;-79
2021/10/08 00:45:08;;;;;;;3.40;2.33;;;;;;;;;;4986415;28;20097;-79
2021/10/08 00:47:35;;;;;;;3.13;1.88;;;;;;;;;;4985061;28;20327;-80
2021/10/08 00:50:01;;;;;;;3.63;2.47;;;;;;;;;;4990438;28;20124;-81
2021/10/08 00:52:27;;;;;;;3.03;2.30;;;;;;;;;;4986971;28;20101;-79
2021/10/08 00:54:56;;;;;;;2.97;2.05;;;;;;;;;;4986488;28;20134;-80
2021/10/08 00:57:23;;;;;;;3.47;2.50;;;;;;;;;;4985893;28;20132;-81
2021/10/08 00:59:50;;;;;;;3.45;2.20;;;;;;;;;;4955323;28;20054;-81
2021/10/08 01:02:17;;;;;;;3.17;2.10;;;;;;;;;;4987810;28;20133;-81
2021/10/08 01:04:46;;;;;;;3.08;2.28;;;;;;;;;;4989282;28;20058;-82
2021/10/08 01:07:12;;;;;;;2.95;1.90;;;;;;;;;;4979069;28;20065;-81
2021/10/08 01:09:38;;;;;;;3.25;2.17;;;;;;;;;;4982957;28;20668;-81
2021/10/08 01:12:09;;;;;;;3.30;2.30;;;;;;;;;;4963768;28;20031;-82
2021/10/08 01:14:35;;;;;;;3.92;2.60;;;;;;;;;;4972165;28;20632;-80
2021/10/08 01:17:11;;;;;;;3.15;2.85;;;;;;;;;;4990558;28;20073;-82
2021/10/08 01:19:37;;;;;;;3.78;2.30;;;;;;;;;;4973807;28;20576;-81
2021/10/08 01:24:56;;;;;;;3.45;2.10;;;;;;;;;;4967802;28;20522;-81
2021/10/08 01:27:23;;;;;;;3.05;2.30;;;;;;;;;;4991383;28;20116;-81
2021/10/08 01:30:02;;;;;;;2.67;2.25;;;;;;;;;;4984163;28;20117;-80
2021/10/08 01:32:29;;;;;;;3.17;2.28;;;;;;;;;;4978723;28;22199;-80
2021/10/08 01:34:56;;;;;;;2.80;2.20;;;;;;;;;;4984330;28;20053;-81
2021/10/08 01:37:22;;;;;;;3.40;2.55;;;;;;;;;;4985453;28;20112;-81
2021/10/08 01:39:49;;;;;;;2.90;2.30;;;;;;;;;;4986084;28;20105;-82
2021/10/08 01:42:15;;;;;;;2.50;2.20;;;;;;;;;;4989021;28;20061;-81
2021/10/08 01:44:42;;;;;;;3.28;2.22;;;;;;;;;;4974176;28;20085;-80
2021/10/08 01:47:08;;;;;;;2.55;1.98;;;;;;;;;;4992984;28;20037;-80
2021/10/08 01:49:35;;;;;;;3.10;2.25;;;;;;;;;;4991912;28;20140;-81
2021/10/08 01:52:11;;;;;;;2.70;2.05;;;;;;;;;;4989870;28;20136;-82
2021/10/08 01:54:37;;;;;;;2.50;2.15;;;;;;;;;;4963523;28;20157;-81
2021/10/08 01:57:04;;;;;;;3.03;2.20;;;;;;;;;;4986086;28;20066;-80
2021/10/08 01:59:30;;;;;;;3.55;2.10;;;;;;;;;;4981273;28;20046;-80
2021/10/08 02:01:56;;;;;;;3.03;2.33;;;;;;;;;;4979359;28;20069;-81
2021/10/08 02:04:23;;;;;;;2.78;1.95;;;;;;;;;;4983955;28;20109;-81
2021/10/08 02:06:49;;;;;;;2.85;2.22;;;;;;;;;;4977909;28;20069;-82
2021/10/08 02:09:16;;;;;;;6.70;2.67;;;;;;;;;;4987266;28;20058;-81
2021/10/08 02:11:42;;;;;;;2.97;2.20;;;;;;;;;;4986512;28;20078;-80
2021/10/08 02:14:09;;;;;;;3.05;2.00;;;;;;;;;;4989434;28;20593;-80
2021/10/08 02:16:35;;;;;;;3.08;2.05;;;;;;;;;;4983444;28;20058;-81
2021/10/08 02:19:02;;;;;;;2.78;2.13;;;;;;;;;;4990777;28;20034;-81
2021/10/08 02:21:28;;;;;;;3.22;2.45;;;;;;;;;;4983573;28;20058;-81
2021/10/08 02:23:55;;;;;;;3.08;2.40;;;;;;;;;;4971232;28;20070;-82
2021/10/08 02:26:21;;;;;;;2.97;2.10;;;;;;;;;;4972690;28;20094;-82
2021/10/08 02:28:48;;;;;;;3.13;2.15;;;;;;;;;;4984992;28;20054;-82
2021/10/08 02:31:14;;;;;;;2.85;2.40;;;;;;;;;;4978954;28;20066;-80
2021/10/08 02:33:49;;;;;;;2.50;1.90;;;;;;;;;;4983686;28;20085;-80
2021/10/08 02:36:16;;;;;;;4.05;1.90;;;;;;;;;;4986014;28;20058;-79
2021/10/08 02:38:43;;;;;;;3.78;2.20;;;;;;;;;;4988632;28;20042;-80
2021/10/08 02:41:09;;;;;;;2.97;2.45;;;;;;;;;;4984380;28;20062;-80
2021/10/08 02:43:36;;;;;;;2.95;2.00;;;;;;;;;;4985214;28;20582;-81
2021/10/08 02:46:06;;;;;;;2.72;2.08;;;;;;;;;;4983950;28;20440;-80
2021/10/08 02:48:33;;;;;;;2.97;2.10;;;;;;;;;;4993472;28;20502;-81
2021/10/08 02:51:00;;;;;;;2.83;2.15;;;;;;;;;;4986029;28;20113;-81
2021/10/08 02:53:26;;;;;;;3.30;2.10;;;;;;;;;;4974390;28;20503;-81
2021/10/08 02:55:52;;;;;;;4.28;2.20;;;;;;;;;;4992552;28;20050;-82
2021/10/08 02:58:24;;;;;;;2.85;2.15;;;;;;;;;;4985715;28;20050;-82
2021/10/08 03:00:51;;;;;;;3.13;2.20;;;;;;;;;;4989261;28;20088;-81
2021/10/08 03:03:17;;;;;;;3.17;2.10;;;;;;;;;;4955312;28;20042;-81
2021/10/08 03:05:44;;;;;;;3.08;2.35;;;;;;;;;;4987359;28;20062;-80
2021/10/08 03:08:10;;;;;;;3.50;2.10;;;;;;;;;;4983857;28;20517;-81
2021/10/08 03:10:43;;;;;;;3.40;2.30;;;;;;;;;;5006760;28;20049;-80
2021/10/08 03:13:09;;;;;;;2.50;2.10;;;;;;;;;;4984055;28;20054;-80
2021/10/08 03:15:36;;;;;;;3.20;2.40;;;;;;;;;;4982465;28;20069;-78
2021/10/08 03:18:02;;;;;;;2.78;1.85;;;;;;;;;;4976484;28;20066;-79
2021/10/08 03:20:28;;;;;;;2.47;2.10;;;;;;;;;;4990188;28;20196;-78
2021/10/08 03:22:58;;;;;;;3.70;2.47;;;;;;;;;;4993429;28;20109;-78
2021/10/08 03:25:24;;;;;;;2.60;2.22;;;;;;;;;;4986888;28;20030;-78
2021/10/08 03:27:51;;;;;;;2.83;2.42;;;;;;;;;;4988996;28;20112;-77
2021/10/08 03:30:17;;;;;;;3.38;2.40;;;;;;;;;;4979331;28;20082;-78
2021/10/08 03:32:44;;;;;;;3.45;2.40;;;;;;;;;;4971932;28;20062;-76
2021/10/08 03:35:11;;;;;;;3.05;2.22;;;;;;;;;;4983914;28;20051;-77
2021/10/08 03:37:50;;;;;;;2.95;1.98;;;;;;;;;;4983710;28;20613;-77
2021/10/08 03:40:25;;;;;;;2.88;2.45;;;;;;;;;;4981988;28;20128;-76
2021/10/08 03:42:52;;;;;;;2.80;2.03;;;;;;;;;;4984223;28;20144;-77
2021/10/08 03:45:18;;;;;;;3.13;2.80;;;;;;;;;;4987265;28;20066;-77
2021/10/08 03:48:05;;;;;;;3.15;2.50;;;;;;;;;;4967686;28;20058;-77
2021/10/08 03:50:32;;;;;;;3.35;2.30;;;;;;;;;;4978230;28;20070;-77
2021/10/08 03:52:58;;;;;;;2.67;2.33;;;;;;;;;;4981621;28;20055;-77
2021/10/08 03:55:24;;;;;;;3.15;2.33;;;;;;;;;;4979258;28;20058;-77
2021/10/08 03:57:51;;;;;;;2.78;2.22;;;;;;;;;;4982649;28;20454;-78
2021/10/08 04:00:17;;;;;;;3.83;2.47;;;;;;;;;;4988452;28;20140;-77
2021/10/08 04:02:57;;;;;;;2.80;2.40;;;;;;;;;;4979501;28;20498;-76
2021/10/08 04:05:24;;;;;;;2.53;2.00;;;;;;;;;;4984646;28;20046;-75
2021/10/08 04:07:50;;;;;;;3.38;2.40;;;;;;;;;;4985685;28;20069;-77
2021/10/08 04:10:16;;;;;;;4.07;2.53;;;;;;;;;;4979785;28;20065;-75
2021/10/08 04:12:43;;;;;;;3.88;2.78;;;;;;;;;;4989241;28;20455;-77
2021/10/08 04:15:12;;;;;;;3.15;2.50;;;;;;;;;;4987666;28;20062;-77
2021/10/08 04:17:38;;;;;;;4.60;2.60;;;;;;;;;;4990554;28;20066;-78
2021/10/08 04:20:05;;;;;;;2.63;2.42;;;;;;;;;;4973411;28;20062;-79
2021/10/08 04:22:32;;;;;;;3.08;2.50;;;;;;;;;;4989046;28;20069;-77
2021/10/08 04:24:58;;;;;;;2.92;2.33;;;;;;;;;;4967082;28;20093;-77
2021/10/08 04:27:24;;;;;;;3.20;2.60;;;;;;;;;;4985256;28;20519;-78
2021/10/08 04:29:51;;;;;;;2.78;2.28;;;;;;;;;;4967377;28;20054;-78
2021/10/08 04:32:17;;;;;;;3.33;2.50;;;;;;;;;;4986418;28;20031;-77
2021/10/08 04:34:43;;;;;;;3.20;2.65;;;;;;;;;;4977179;28;20077;-77
2021/10/08 04:37:10;;;;;;;3.40;2.33;;;;;;;;;;4981591;28;20170;-78
2021/10/08 04:39:56;;;;;;;2.90;2.13;;;;;;;;;;4970855;28;20054;-78
2021/10/08 04:42:23;;;;;;;3.53;2.45;;;;;;;;;;4971331;28;20058;-82
2021/10/08 04:47:39;;;;;;;3.20;2.30;;;;;;;;;;4980405;28;21257;-77
2021/10/08 04:50:05;;;;;;;3.63;2.10;;;;;;;;;;4988373;28;20058;-77
2021/10/08 04:52:32;;;;;;;2.67;2.20;;;;;;;;;;4975741;28;20066;-77
2021/10/08 04:54:58;;;;;;;3.30;2.40;;;;;;;;;;4982771;28;20839;-77
2021/10/08 04:57:43;;;;;;;3.40;2.45;;;;;;;;;;4982187;28;20054;-77
2021/10/08 05:00:10;;;;;;;4.38;2.80;;;;;;;;;;4989287;28;20113;-77
2021/10/08 05:02:36;;;;;;;3.13;2.00;;;;;;;;;;4983360;28;20062;-79
2021/10/08 05:05:03;;;;;;;3.53;2.42;;;;;;;;;;4979554;28;20066;-77
2021/10/08 05:07:29;;;;;;;2.83;2.22;;;;;;;;;;4987903;28;20047;-76
2021/10/08 05:09:56;;;;;;;3.55;2.10;;;;;;;;;;4987785;28;20058;-76
2021/10/08 05:12:25;;;;;;;3.00;2.30;;;;;;;;;;4981150;28;20208;-77
2021/10/08 05:14:52;;;;;;;3.47;2.50;;;;;;;;;;4982783;28;20057;-77
2021/10/08 05:17:22;;;;;;;3.08;2.40;;;;;;;;;;4975393;28;20069;-77
2021/10/08 05:19:48;;;;;;;2.80;2.20;;;;;;;;;;4972995;28;20136;-77
2021/10/08 05:22:15;;;;;;;3.67;2.67;;;;;;;;;;4989614;28;20147;-75
2021/10/08 05:27:51;;;;;;;2.60;2.00;;;;;;;;;;4965653;28;20030;-75
2021/10/08 05:30:18;;;;;;;2.65;2.15;;;;;;;;;;4958884;28;20042;-74
2021/10/08 05:32:44;;;;;;;3.47;2.20;;;;;;;;;;4985289;28;20444;-74
2021/10/08 05:35:11;;;;;;;2.72;2.00;;;;;;;;;;4987431;28;20105;-74
2021/10/08 05:37:38;;;;;;;4.93;2.10;;;;;;;;;;4991429;28;20681;-75
2021/10/08 05:40:05;;;;;;;3.42;2.17;;;;;;;;;;4983716;28;20062;-74
2021/10/08 05:42:33;;;;;;;3.03;1.92;;;;;;;;;;4974494;28;20166;-74
2021/10/08 05:45:00;;;;;;;2.83;2.13;;;;;;;;;;4979484;28;20057;-75
2021/10/08 05:47:27;;;;;;;3.70;2.40;;;;;;;;;;4981434;28;20084;-75
2021/10/08 05:49:53;;;;;;;2.78;2.13;;;;;;;;;;4974012;28;20062;-75
2021/10/08 05:52:20;;;;;;;2.90;2.05;;;;;;;;;;4980274;28;20113;-75
2021/10/08 05:54:46;;;;;;;3.00;2.00;;;;;;;;;;4991122;28;20182;-75
2021/10/08 05:57:13;;;;;;;3.35;2.15;;;;;;;;;;4981764;28;20041;-74
2021/10/08 05:59:41;;;;;;;3.90;2.20;;;;;;;;;;4988882;28;20066;-74
2021/10/08 06:02:23;;;;;;;2.78;2.15;;;;;;;;;;4984265;28;20065;-75
2021/10/08 06:04:49;;;;;;;4.10;2.22;;;;;;;;;;4982797;28;20093;-74
2021/10/08 06:07:16;;;;;;;2.35;1.85;;;;;;;;;;4982233;28;20062;-74
2021/10/08 06:09:45;;;;;;;2.95;2.05;;;;;;;;;;4978798;28;20517;-75
2021/10/08 06:12:13;;;;;;;3.40;1.98;;;;;;;;;;4967055;28;20541;-74
2021/10/08 06:14:39;;;;;;;2.75;1.92;;;;;;;;;;4985077;28;20093;-74
2021/10/08 06:17:07;;;;;;;2.92;2.03;;;;;;;;;;4965785;28;20054;-76
2021/10/08 06:19:34;;;;;;;3.15;2.20;;;;;;;;;;4960418;28;20031;-74
2021/10/08 06:22:00;;;;;;;2.40;2.10;;;;;;;;;;4974963;28;20751;-74
2021/10/08 06:24:29;;;;;;;2.67;2.00;;;;;;;;;;4974468;28;20058;-74
2021/10/08 06:26:55;;;;;;;3.90;2.28;;;;;;;;;;4981120;28;20062;-74
2021/10/08 06:29:22;;;;;;;2.88;2.10;;;;;;;;;;4983018;28;20073;-74
2021/10/08 06:31:48;;;;;;;2.63;1.80;;;;;;;;;;4986559;28;20623;-75
2021/10/08 06:34:15;;;;;;;2.65;1.65;;;;;;;;;;4980950;28;20058;-73
2021/10/08 06:36:54;;;;;;;3.10;1.85;;;;;;;;;;4979142;28;20093;-74
2021/10/08 06:39:21;;;;;;;2.85;2.17;;;;;;;;;;4982897;28;20510;-74
2021/10/08 06:41:47;;;;;;;3.67;2.33;;;;;;;;;;4991478;28;20135;-74
2021/10/08 06:44:14;;;;;;;3.63;2.47;;;;;;;;;;4981609;28;20125;-74
2021/10/08 06:46:40;;;;;;;2.85;1.80;;;;;;;;;;4986297;28;20054;-73
2021/10/08 06:49:07;;;;;;;3.63;2.05;;;;;;;;;;4975188;28;20105;-74
2021/10/08 06:51:34;;;;;;;4.60;2.20;;;;;;;;;;4976354;28;20189;-74
2021/10/08 06:54:00;;;;;;;2.60;2.00;;;;;;;;;;4982787;28;20051;-74
2021/10/08 06:56:29;;;;;;;3.25;1.95;;;;;;;;;;4978815;28;20058;-74
2021/10/08 06:58:56;;;;;;;3.08;2.10;;;;;;;;;;4989637;28;20058;-75
2021/10/08 07:01:22;;;;;;;3.03;1.98;;;;;;;;;;4988109;28;20207;-74
2021/10/08 07:03:49;;;;;;;2.80;2.00;;;;;;;;;;4991813;28;20042;-74
2021/10/08 07:06:15;;;;;;;2.70;1.90;;;;;;;;;;4985318;28;20180;-74
2021/10/08 07:08:42;;;;;;;2.50;1.80;;;;;;;;;;4995117;28;20038;-74
2021/10/08 07:11:09;;;;;;;3.05;2.00;;;;;;;;;;4986977;28;20074;-75
2021/10/08 07:13:35;;;;;;;4.28;2.05;;;;;;;;;;4984112;28;20058;-74
2021/10/08 07:16:02;;;;;;;3.28;2.10;;;;;;;;;;4990975;28;20883;-74
2021/10/08 07:18:36;;;;;;;3.10;2.10;;;;;;;;;;5001972;28;20430;-74
2021/10/08 07:21:03;;;;;;;2.53;1.80;;;;;;;;;;4985990;28;20067;-74
2021/10/08 07:23:29;;;;;;;3.38;2.17;;;;;;;;;;4988756;28;20037;-76
2021/10/08 07:25:56;;;;;;;4.07;2.00;;;;;;;;;;4991357;28;20193;-74
2021/10/08 07:28:24;;;;;;;3.20;2.33;;;;;;;;;;4981197;28;20479;-74
2021/10/08 07:30:51;;;;;;;2.65;1.80;;;;;;;;;;4990581;28;20441;-74
2021/10/08 07:33:17;;;;;;;2.75;1.90;;;;;;;;;;4977885;28;20065;-75
2021/10/08 07:35:44;;;;;;;3.25;2.13;;;;;;;;;;4988298;28;20455;-75
2021/10/08 07:38:10;;;;;;;3.55;2.10;;;;;;;;;;4989519;28;20239;-75
2021/10/08 07:40:36;;;;;;;2.65;1.90;;;;;;;;;;4988676;28;20106;-75
2021/10/08 07:43:03;;;;;;;2.90;2.13;;;;;;;;;;4989215;28;20471;-75
2021/10/08 07:45:29;;;;;;;3.20;2.28;;;;;;;;;;4980950;28;20043;-74
2021/10/08 07:47:56;;;;;;;2.65;2.10;;;;;;;;;;4984184;28;20068;-75
2021/10/08 07:50:22;;;;;;;3.63;2.15;;;;;;;;;;4990155;28;20084;-75
2021/10/08 07:52:48;;;;;;;3.17;2.00;;;;;;;;;;4986894;28;20116;-75
2021/10/08 07:55:15;;;;;;;3.08;2.13;;;;;;;;;;4988956;28;20065;-75
2021/10/08 07:57:41;;;;;;;3.90;2.05;;;;;;;;;;4982928;28;20062;-75
2021/10/08 08:00:09;;;;;;;3.38;2.40;;;;;;;;;;4981187;28;20065;-75
2021/10/08 08:02:35;;;;;;;3.95;2.20;;;;;;;;;;4978211;28;20072;-75
2021/10/08 08:05:01;;;;;;;2.95;1.83;;;;;;;;;;4984946;28;20062;-76
2021/10/08 08:07:29;;;;;;;3.05;1.95;;;;;;;;;;4987346;28;21194;-75
2021/10/08 08:09:55;;;;;;;3.25;2.08;;;;;;;;;;4988553;28;20085;-75
2021/10/08 08:12:21;;;;;;;3.22;2.00;;;;;;;;;;4986399;28;20081;-75
2021/10/08 08:14:48;;;;;;;2.95;2.13;;;;;;;;;;4974857;28;20050;-75
2021/10/08 08:17:14;;;;;;;3.42;2.10;;;;;;;;;;4991720;28;20023;-75
2021/10/08 08:19:42;;;;;;;2.63;1.95;;;;;;;;;;4991916;28;20038;-75
2021/10/08 08:22:09;;;;;;;2.60;1.90;;;;;;;;;;4995744;28;20526;-76
2021/10/08 08:24:35;;;;;;;3.45;2.20;;;;;;;;;;4993785;28;20066;-75
2021/10/08 08:27:02;;;;;;;3.97;2.40;;;;;;;;;;4996505;28;20034;-74
2021/10/08 08:29:28;;;;;;;3.38;2.17;;;;;;;;;;5004038;28;20233;-74
2021/10/08 08:31:55;;;;;;;3.42;2.47;;;;;;;;;;5001332;28;20050;-75
2021/10/08 08:34:22;;;;;;;3.20;2.13;;;;;;;;;;4993611;28;20443;-74
2021/10/08 08:36:49;;;;;;;3.20;2.28;;;;;;;;;;5014518;28;20038;-74
2021/10/08 08:39:16;;;;;;;2.95;2.05;;;;;;;;;;5001208;28;20069;-76
2021/10/08 08:41:43;;;;;;;3.63;2.22;;;;;;;;;;4968578;28;20038;-75
2021/10/08 08:44:09;;;;;;;2.90;2.00;;;;;;;;;;4994828;28;20288;-75
2021/10/08 08:46:36;;;;;;;3.83;2.25;;;;;;;;;;4987441;28;20070;-74
2021/10/08 08:49:03;;;;;;;3.25;2.20;;;;;;;;;;4978104;28;20059;-75
2021/10/08 08:51:30;;;;;;;4.53;2.10;;;;;;;;;;4987039;28;21222;-74
2021/10/08 08:53:57;;;;;;;3.33;2.20;;;;;;;;;;4992098;28;20076;-75
2021/10/08 08:56:25;;;;;;;3.17;2.00;;;;;;;;;;4989603;28;20426;-74
2021/10/08 08:58:58;;;;;;;3.97;2.45;;;;;;;;;;4991097;28;20055;-74
2021/10/08 09:01:25;;;;;;;3.50;2.10;;;;;;;;;;4989250;28;20439;-74
2021/10/08 09:04:05;;;;;;;2.90;2.20;;;;;;;;;;4978994;28;20047;-74
2021/10/08 09:06:33;;;;;;;3.20;2.20;;;;;;;;;;4987754;28;20160;-74
2021/10/08 09:08:59;;;;;;;3.30;2.17;;;;;;;;;;4991396;28;20058;-75
2021/10/08 09:11:38;;;;;;;3.35;2.15;;;;;;;;;;4968506;28;20098;-75
2021/10/08 09:14:24;;;;;;;2.75;2.05;;;;;;;;;;4987846;28;20065;-75
2021/10/08 09:17:10;;;;;;;3.08;2.00;;;;;;;;;;4980326;28;20053;-75
2021/10/08 09:19:47;;;;;;;2.58;2.05;;;;;;;;;;4986062;28;22262;-75
2021/10/08 09:22:36;;;;;;;3.08;2.28;;;;;;;;;;4984651;28;20070;-76
2021/10/08 09:25:12;;;;;;;3.50;2.30;;;;;;;;;;4983100;28;20057;-76
2021/10/08 09:27:39;;;;;;;2.70;2.08;;;;;;;;;;4971209;28;20042;-75
2021/10/08 09:30:06;;;;;;;2.63;1.85;;;;;;;;;;4985549;28;20138;-74
2021/10/08 09:32:39;;;;;;;4.18;2.20;;;;;;;;;;4991808;28;20092;-74
2021/10/08 09:35:08;;;;;;;2.92;2.08;;;;;;;;;;4981389;28;20066;-76
2021/10/08 09:37:35;;;;;;;3.15;2.10;;;;;;;;;;4986551;28;20058;-74
2021/10/08 09:40:01;;;;;;;3.92;1.80;;;;;;;;;;4989258;28;20163;-75
2021/10/08 09:42:35;;;;;;;3.63;2.10;;;;;;;;;;4981964;28;20494;-75
2021/10/08 09:45:02;;;;;;;3.33;2.05;;;;;;;;;;4993653;28;20552;-75
2021/10/08 09:47:29;;;;;;;3.00;2.10;;;;;;;;;;4984049;28;21308;-75
2021/10/08 09:50:12;;;;;;;3.40;2.35;;;;;;;;;;4987759;28;20053;-75
2021/10/08 09:52:38;;;;;;;3.13;2.25;;;;;;;;;;4970379;28;20642;-75
2021/10/08 09:55:09;;;;;;;3.15;2.20;;;;;;;;;;4980626;28;20061;-75
2021/10/08 09:57:54;;;;;;;2.78;2.00;;;;;;;;;;4973832;28;20576;-75
2021/10/08 10:00:42;;;;;;;2.45;1.80;;;;;;;;;;4983579;28;20145;-74
2021/10/08 10:03:09;;;;;;;3.20;2.00;;;;;;;;;;4989043;28;20061;-76
2021/10/08 10:05:36;;;;;;;2.90;2.13;;;;;;;;;;4978053;28;20069;-76
2021/10/08 10:08:03;;;;;;;2.78;2.03;;;;;;;;;;4977939;28;20069;-75
2021/10/08 10:10:30;;;;;;;2.70;2.00;;;;;;;;;;4987113;28;20515;-75
2021/10/08 10:12:58;;;;;;;3.20;2.30;;;;;;;;;;4984681;28;20124;-76
2021/10/08 10:15:25;;;;;;;4.03;2.20;;;;;;;;;;4988204;28;20054;-75
2021/10/08 10:17:51;;;;;;;3.08;2.08;;;;;;;;;;4985101;28;20058;-75
2021/10/08 10:20:18;;;;;;;2.65;1.77;;;;;;;;;;4986542;28;20503;-75
2021/10/08 10:22:45;;;;;;;3.47;1.95;;;;;;;;;;4979694;28;20137;-75
2021/10/08 10:25:12;;;;;;;3.05;2.05;;;;;;;;;;4981917;28;20112;-75
2021/10/08 10:27:42;;;;;;;2.40;1.75;;;;;;;;;;4973382;28;20051;-76
2021/10/08 10:30:10;;;;;;;4.07;2.40;;;;;;;;;;4996358;28;20059;-75
2021/10/08 10:32:36;;;;;;;2.55;1.80;;;;;;;;;;4995221;28;20085;-76
2021/10/08 10:35:04;;;;;;;2.60;2.00;;;;;;;;;;4988270;28;20108;-76
2021/10/08 10:37:41;;;;;;;2.78;2.05;;;;;;;;;;4968623;28;20463;-76
2021/10/08 10:40:34;;;;;;;2.40;1.70;;;;;;;;;;4994824;28;20069;-76
2021/10/08 10:43:16;;;;;;;2.92;2.08;;;;;;;;;;4995498;28;20112;-76
2021/10/08 10:45:50;;;;;;;3.83;2.42;;;;;;;;;;4951862;28;20038;-76
2021/10/08 10:48:28;;;;;;;3.58;2.08;;;;;;;;;;4987866;28;20054;-75
2021/10/08 10:51:10;;;;;;;3.33;2.25;;;;;;;;;;4981629;28;20550;-75
2021/10/08 10:53:50;;;;;;;3.20;2.22;;;;;;;;;;4979969;28;21511;-75
2021/10/08 10:56:35;;;;;;;3.28;2.20;;;;;;;;;;4981981;28;20060;-75
2021/10/08 10:59:20;;;;;;;2.53;2.10;;;;;;;;;;4983294;28;20038;-75
2021/10/08 11:04:34;;;;;;;3.00;1.90;;;;;;;;;;4979440;28;22261;-75
2021/10/08 11:07:08;;;;;;;3.13;2.17;;;;;;;;;;4986272;28;20042;-75
2021/10/08 11:09:35;;;;;;;3.55;2.40;;;;;;;;;;4979976;28;21347;-75
2021/10/08 11:12:20;;;;;;;3.28;2.50;;;;;;;;;;4992648;28;20062;-75
2021/10/08 11:14:46;;;;;;;4.88;2.38;;;;;;;;;;4983771;28;21109;-73
2021/10/08 11:17:32;;;;;;;2.70;2.03;;;;;;;;;;4984129;28;20070;-75
2021/10/08 11:19:58;;;;;;;3.63;2.30;;;;;;;;;;4989345;28;20097;-75
2021/10/08 11:22:43;;;;;;;3.60;2.15;;;;;;;;;;4985082;28;20438;-76
2021/10/08 11:25:12;;;;;;;3.30;2.10;;;;;;;;;;4984077;28;20221;-75
2021/10/08 11:27:39;;;;;;;2.75;1.90;;;;;;;;;;4982649;28;20042;-75
2021/10/08 11:30:06;;;;;;;4.20;2.00;;;;;;;;;;4983474;28;20109;-73
2021/10/08 11:32:34;;;;;;;2.97;1.90;;;;;;;;;;4985550;28;20050;-75
2021/10/08 11:35:01;;;;;;;2.95;2.10;;;;;;;;;;4982411;28;20062;-75
2021/10/08 11:37:31;;;;;;;3.05;2.00;;;;;;;;;;4980036;28;20062;-75
2021/10/08 11:39:57;;;;;;;3.72;2.05;;;;;;;;;;4976505;28;20090;-75
2021/10/08 11:42:26;;;;;;;3.40;2.38;;;;;;;;;;4985254;28;20070;-76
2021/10/08 11:45:00;;;;;;;3.20;2.20;;;;;;;;;;4984502;28;20067;-76
2021/10/08 11:47:37;;;;;;;2.67;1.80;;;;;;;;;;4976307;28;20035;-75
2021/10/08 11:52:54;;;;;;;3.92;2.03;;;;;;;;;;4990577;28;20065;-75
2021/10/08 11:55:23;;;;;;;3.72;2.10;;;;;;;;;;4983786;28;20499;-76
2021/10/08 11:57:55;;;;;;;2.63;1.83;;;;;;;;;;4988128;28;20047;-76
2021/10/08 12:00:24;;;;;;;2.90;2.33;;;;;;;;;;4960935;28;20085;-75
2021/10/08 12:02:57;;;;;;;2.97;1.70;;;;;;;;;;4984968;28;20528;-75
2021/10/08 12:05:24;;;;;;;2.67;2.17;;;;;;;;;;4979818;28;20070;-75
2021/10/08 12:07:56;;;;;;;2.45;1.90;;;;;;;;;;4982881;28;20133;-76
2021/10/08 12:10:23;;;;;;;3.42;2.20;;;;;;;;;;4979784;28;20058;-75
2021/10/08 12:12:50;;;;;;;3.47;2.10;;;;;;;;;;4967076;28;20056;-76
2021/10/08 12:15:30;;;;;;;2.88;1.90;;;;;;;;;;4979198;28;20050;-76
2021/10/08 12:17:57;;;;;;;3.45;2.42;;;;;;;;;;4986331;28;20143;-75
2021/10/08 12:20:31;;;;;;;3.13;2.13;;;;;;;;;;4987810;28;20050;-75
2021/10/08 12:23:33;;;;;;;3.03;2.25;;;;;;;;;;4983356;28;20054;-75
2021/10/08 12:25:59;;;;;;;;;;;;;;;;;;4939403;28;20542;-74
2021/10/08 12:28:26;;;;;;;2.88;2.25;;;;;;;;;;4959171;28;19945;-75
2021/10/08 12:30:55;;;;;;;2.72;2.05;;;;;;;;;;4981747;28;20112;-75
2021/10/08 12:33:40;;;;;;;3.42;2.00;;;;;;;;;;4967743;28;20402;-75
2021/10/08 12:36:10;;;;;;;3.35;2.17;;;;;;;;;;4969845;28;20065;-75
2021/10/08 12:38:51;;;;;;;2.83;1.83;;;;;;;;;;4979698;28;20121;-75
2021/10/08 12:41:18;;;;;;;;;;;;;;;;;;4984518;28;20038;-75
2021/10/08 12:43:45;;;;;;;2.70;1.90;;;;;;;;;;4981656;28;19949;-76
2021/10/08 12:46:21;;;;;;;3.58;2.22;;;;;;;;;;4984942;28;20499;-78
2021/10/08 12:48:58;;;;;;;2.70;2.00;;;;;;;;;;4989690;28;20043;-78
2021/10/08 12:51:24;;;;;;;3.08;2.20;;;;;;;;;;4981422;28;20128;-78
2021/10/08 12:54:10;;;;;;;3.10;2.00;;;;;;;;;;4979538;28;20133;-76
2021/10/08 12:56:36;;;;;;;3.47;1.98;;;;;;;;;;4975931;28;21394;-77
2021/10/08 12:59:02;;;;;;;4.25;2.28;;;;;;;;;;4979360;28;20063;-77
2021/10/08 13:01:29;;;;;;;2.65;1.88;;;;;;;;;;4977045;28;20066;-76
2021/10/08 13:03:57;;;;;;;3.17;2.08;;;;;;;;;;4979470;28;20118;-78
2021/10/08 13:06:24;;;;;;;3.70;1.98;;;;;;;;;;4962000;28;20034;-76
2021/10/08 13:09:04;;;;;;;4.75;2.28;;;;;;;;;;4977392;28;21365;-77
2021/10/08 13:11:38;;;;;;;3.53;2.05;;;;;;;;;;4977723;28;20141;-76
2021/10/08 13:14:04;;;;;;;3.67;2.25;;;;;;;;;;4975003;28;20125;-80
2021/10/08 13:16:31;;;;;;;4.05;2.13;;;;;;;;;;4963077;28;20073;-76
2021/10/08 13:18:59;;;;;;;4.13;2.30;;;;;;;;;;4978013;28;20495;-76
2021/10/08 13:21:26;;;;;;;3.25;2.20;;;;;;;;;;4961124;28;20070;-76
2021/10/08 13:24:01;;;;;;;4.97;2.40;;;;;;;;;;5060201;28;20594;-78
2021/10/08 13:26:28;;;;;;;2.65;2.08;;;;;;;;;;5054990;28;20798;-79
2021/10/08 13:28:54;;;;;;;2.80;2.15;;;;;;;;;;5064072;28;20500;-79
2021/10/08 13:31:21;;;;;;;3.10;2.20;;;;;;;;;;5063251;28;20481;-79
2021/10/08 13:33:47;;;;;;;2.70;1.92;;;;;;;;;;5072540;28;20072;-79
2021/10/08 13:36:14;;;;;;;2.72;2.00;;;;;;;;;;5064428;28;20052;-79
2021/10/08 13:38:40;;;;;;;3.95;2.10;;;;;;;;;;5065716;28;20059;-78
2021/10/08 13:41:07;;;;;;;3.28;1.95;;;;;;;;;;5065451;28;20060;-79
2021/10/08 13:43:33;;;;;;;2.30;2.08;;;;;;;;;;5069219;28;20094;-78
2021/10/08 13:46:00;;;;;;;2.85;2.28;;;;;;;;;;5064598;28;20497;-78
2021/10/08 13:48:26;;;;;;;2.75;2.15;;;;;;;;;;5066500;28;20048;-77
2021/10/08 13:50:52;;;;;;;2.70;2.03;;;;;;;;;;5069390;28;20064;-79
2021/10/08 13:53:19;;;;;;;3.95;2.28;;;;;;;;;;5068145;28;20117;-79
2021/10/08 13:55:45;;;;;;;2.72;2.00;;;;;;;;;;5065338;28;20108;-79
2021/10/08 13:58:12;;;;;;;3.10;1.98;;;;;;;;;;5064323;28;20065;-78
2021/10/08 14:01:01;;;;;;;2.72;1.90;;;;;;;;;;5057139;28;20061;-77
2021/10/08 14:11:24;;;;;;;3.17;2.05;;;;;;;;;;5065944;28;20071;-77
2021/10/08 14:13:51;;;;;;;2.63;1.90;;;;;;;;;;5068878;28;20105;-77
2021/10/08 14:16:17;;;;;;;2.42;2.00;;;;;;;;;;5069900;28;20480;-77
2021/10/08 14:18:44;;;;;;;3.25;2.22;;;;;;;;;;5066318;28;20072;-78
2021/10/08 14:21:10;;;;;;;3.10;1.98;;;;;;;;;;5081040;27;20055;-79
2021/10/08 14:23:38;;;;;;;2.72;2.00;;;;;;;;;;5085400;28;20071;-77
2021/10/08 14:26:04;;;;;;;2.55;1.90;;;;;;;;;;5085044;28;20449;-77
2021/10/08 14:28:31;;;;;;;2.95;1.98;;;;;;;;;;5086783;28;21435;-78
2021/10/08 14:30:57;;;;;;;2.22;1.83;;;;;;;;;;5082887;27;20508;-77
2021/10/08 14:33:24;;;;;;;2.80;2.03;;;;;;;;;;5083541;27;20056;-77
2021/10/08 14:35:50;;;;;;;2.70;1.98;;;;;;;;;;5054145;28;20400;-77
2021/10/08 14:38:17;;;;;;;2.90;2.05;;;;;;;;;;5069610;28;20064;-77
2021/10/08 14:40:43;;;;;;;3.28;2.13;;;;;;;;;;5062196;28;20067;-77
2021/10/08 14:43:10;;;;;;;3.08;2.00;;;;;;;;;;5070494;28;20068;-78
2021/10/08 14:45:36;;;;;;;2.38;1.90;;;;;;;;;;5074786;28;20056;-77
2021/10/08 14:48:03;;;;;;;2.50;1.77;;;;;;;;;;5058901;28;20024;-77
2021/10/08 14:50:29;;;;;;;2.75;2.00;;;;;;;;;;5071358;28;20067;-78
2021/10/08 14:52:56;;;;;;;2.67;2.00;;;;;;;;;;5064457;28;20057;-78
2021/10/08 14:58:07;;;;;;;3.88;1.80;;;;;;;;;;5068056;28;20071;-79
2021/10/08 15:00:35;;;;;;;4.18;2.03;;;;;;;;;;5069648;28;20479;-79
2021/10/08 15:03:13;;;;;;;3.92;2.22;;;;;;;;;;5068947;28;20063;-77
2021/10/08 15:05:39;;;;;;;2.80;2.03;;;;;;;;;;5062117;28;20052;-77
2021/10/08 15:08:06;;;;;;;4.88;2.35;;;;;;;;;;5064607;28;20105;-77
2021/10/08 15:10:32;;;;;;;3.13;1.60;;;;;;;;;;5064281;28;20052;-77
2021/10/08 15:12:59;;;;;;;3.45;1.70;;;;;;;;;;5058684;28;20569;-77
2021/10/08 15:15:25;;;;;;;3.38;1.70;;;;;;;;;;5070027;28;20063;-77
2021/10/08 15:17:51;;;;;;;4.70;2.17;;;;;;;;;;5068470;28;20056;-76